createdAt,value
2023-11-01T00:01:00.011Z,98508.00
2023-11-01T00:03:32.860Z,98506.00
2023-11-01T00:05:59.963Z,98501.00
2023-11-01T00:08:27.011Z,98493.00
2023-11-01T00:10:54.144Z,98496.00
2023-11-01T00:13:21.135Z,98503.00
2023-11-01T00:15:48.301Z,98501.00
2023-11-01T00:18:15.278Z,98506.00
2023-11-01T00:20:42.200Z,98494.00
2023-11-01T00:23:09.230Z,98490.00
2023-11-01T00:25:36.618Z,98492.00
2023-11-01T00:28:03.698Z,98493.00
2023-11-01T00:30:30.586Z,98487.00
2023-11-01T00:32:57.480Z,98503.00
2023-11-01T00:35:24.523Z,98489.00
2023-11-01T00:37:51.364Z,98495.00
2023-11-01T00:40:18.579Z,98501.00
2023-11-01T00:42:46.885Z,98486.00
2023-11-01T00:45:13.767Z,98490.00
2023-11-01T00:47:40.887Z,98487.00
2023-11-01T00:50:08.970Z,98487.00
2023-11-01T00:52:35.935Z,98479.00
2023-11-01T00:55:02.918Z,98465.00
2023-11-01T00:57:29.822Z,98482.00
2023-11-01T00:59:56.651Z,98476.00
2023-11-01T01:02:23.591Z,98474.00
2023-11-01T01:04:52.621Z,98471.00
2023-11-01T01:07:19.531Z,98463.00
2023-11-01T01:09:46.495Z,98469.00
2023-11-01T01:12:15.957Z,98476.00
2023-11-01T01:14:42.872Z,98472.00
2023-11-01T01:17:09.904Z,98457.00
2023-11-01T01:19:40.108Z,98468.00
2023-11-01T01:22:07.125Z,98466.00
2023-11-01T01:24:34.140Z,98463.00
2023-11-01T01:27:01.208Z,98454.00
2023-11-01T01:29:28.520Z,98447.00
2023-11-01T01:31:55.429Z,98446.00
2023-11-01T01:34:22.199Z,98439.00
2023-11-01T01:36:51.783Z,98443.00
2023-11-01T01:39:23.289Z,98430.00
2023-11-01T01:41:50.242Z,98441.00
2023-11-01T01:44:17.223Z,98439.00
2023-11-01T01:46:44.627Z,98432.00
2023-11-01T01:49:16.450Z,98438.00
2023-11-01T01:51:43.930Z,98432.00
2023-11-01T01:54:11.260Z,98441.00
2023-11-01T01:56:38.629Z,98431.00
2023-11-01T01:59:06.670Z,98434.00
2023-11-01T02:01:42.231Z,98423.00
2023-11-01T02:04:14.041Z,98435.00
2023-11-01T02:06:44.972Z,98424.00
2023-11-01T02:09:18.683Z,98419.00
2023-11-01T02:11:46.492Z,98424.00
2023-11-01T02:14:15.207Z,98427.00
2023-11-01T02:16:42.354Z,98415.00
2023-11-01T02:19:12.965Z,98417.00
2023-11-01T02:21:39.950Z,98419.00
2023-11-01T02:24:09.796Z,98411.00
2023-11-01T02:26:36.856Z,98418.00
2023-11-01T02:29:04.279Z,98407.00
2023-11-01T02:31:34.472Z,98407.00
2023-11-01T02:34:01.736Z,98407.00
2023-11-01T02:36:31.385Z,98403.00
2023-11-01T02:38:58.469Z,98407.00
2023-11-01T02:41:25.505Z,98397.00
2023-11-01T02:43:52.501Z,98394.00
2023-11-01T02:46:19.590Z,98389.00
2023-11-01T02:48:48.573Z,98395.00
2023-11-01T02:51:15.424Z,98398.00
2023-11-01T02:53:42.346Z,98390.00
2023-11-01T02:56:09.324Z,98398.00
2023-11-01T02:58:38.588Z,98395.00
2023-11-01T03:01:06.893Z,98393.00
2023-11-01T03:03:34.258Z,98395.00
2023-11-01T03:06:06.301Z,98392.00
2023-11-01T03:08:33.330Z,98390.00
2023-11-01T03:11:03.290Z,98390.00
2023-11-01T03:13:30.838Z,98387.00
2023-11-01T03:15:57.790Z,98392.00
2023-11-01T03:18:24.831Z,98374.00
2023-11-01T03:20:51.840Z,98379.00
2023-11-01T03:23:21.778Z,98363.00
2023-11-01T03:25:58.230Z,98367.00
2023-11-01T03:28:25.264Z,98376.00
2023-11-01T03:30:55.300Z,98378.00
2023-11-01T03:33:27.293Z,98368.00
2023-11-01T03:35:54.351Z,98369.00
2023-11-01T03:38:21.359Z,98371.00
2023-11-01T03:40:51.357Z,98358.00
2023-11-01T03:43:21.301Z,98353.00
2023-11-01T03:45:50.686Z,98351.00
2023-11-01T03:48:17.786Z,98350.00
2023-11-01T03:50:46.629Z,98349.00
2023-11-01T03:53:19.644Z,98348.00
2023-11-01T03:55:46.538Z,98342.00
2023-11-01T03:58:13.656Z,98352.00
2023-11-01T04:00:42.571Z,98327.00
2023-11-01T04:03:09.747Z,98326.00
2023-11-01T04:05:38.212Z,98334.00
2023-11-01T04:08:05.529Z,98333.00
2023-11-01T04:10:32.971Z,98317.00
2023-11-01T04:12:59.992Z,98318.00
2023-11-01T04:15:26.881Z,98315.00
2023-11-01T04:17:53.859Z,98308.00
2023-11-01T04:20:20.865Z,98316.00
2023-11-01T04:22:47.844Z,98304.00
2023-11-01T04:25:16.890Z,98302.00
2023-11-01T04:27:43.776Z,98302.00
2023-11-01T04:30:15.555Z,98306.00
2023-11-01T04:32:44.488Z,98295.00
2023-11-01T04:35:12.212Z,98300.00
2023-11-01T04:37:40.219Z,98306.00
2023-11-01T04:40:12.645Z,98301.00
2023-11-01T04:42:45.543Z,98293.00
2023-11-01T04:45:13.837Z,98302.00
2023-11-01T04:47:43.792Z,98297.00
2023-11-01T04:50:15.583Z,98292.00
2023-11-01T04:52:45.185Z,98289.00
2023-11-01T04:55:12.610Z,98290.00
2023-11-01T04:57:40.409Z,98289.00
2023-11-01T05:00:12.489Z,98267.00
2023-11-01T05:02:42.254Z,98274.00
2023-11-01T05:05:10.068Z,98260.00
2023-11-01T05:07:37.497Z,98266.00
2023-11-01T05:10:10.188Z,98267.00
2023-11-01T05:12:47.279Z,98274.00
2023-11-01T05:15:21.913Z,98267.00
2023-11-01T05:17:58.926Z,98268.00
2023-11-01T05:20:38.826Z,98270.00
2023-11-01T05:23:16.737Z,98265.00
2023-11-01T05:25:52.383Z,98260.00
2023-11-01T05:28:19.555Z,98265.00
2023-11-01T05:30:59.215Z,98251.00
2023-11-01T05:33:39.963Z,98252.00
2023-11-01T05:36:14.843Z,98255.00
2023-11-01T05:38:48.712Z,98253.00
2023-11-01T05:41:18.173Z,98252.00
2023-11-01T05:44:27.488Z,98249.00
2023-11-01T05:47:09.946Z,98240.00
2023-11-01T05:49:37.755Z,98246.00
2023-11-01T05:52:21.333Z,98225.00
2023-11-01T05:54:50.657Z,98224.00
2023-11-01T05:57:31.735Z,98231.00
2023-11-01T06:00:01.376Z,98230.00
2023-11-01T06:02:34.943Z,98222.00
2023-11-01T06:05:04.008Z,98227.00
2023-11-01T06:07:39.361Z,98221.00
2023-11-01T06:10:11.284Z,98219.00
2023-11-01T06:12:49.256Z,98227.00
2023-11-01T06:15:16.778Z,98225.00
2023-11-01T06:17:52.052Z,98217.00
2023-11-01T06:20:32.680Z,98229.00
2023-11-01T06:23:00.569Z,98231.00
2023-11-01T06:25:36.322Z,98231.00
2023-11-01T06:28:03.284Z,98233.00
2023-11-01T06:30:30.478Z,98233.00
2023-11-01T06:32:57.910Z,98216.00
2023-11-01T06:35:27.618Z,98225.00
2023-11-01T06:37:56.568Z,98227.00
2023-11-01T06:40:23.891Z,98217.00
2023-11-01T06:42:50.997Z,98210.00
2023-11-01T06:45:18.224Z,98214.00
2023-11-01T06:47:45.243Z,98204.00
2023-11-01T06:50:17.143Z,98201.00
2023-11-01T06:52:47.748Z,98191.00
2023-11-01T06:55:17.740Z,98184.00
2023-11-01T06:57:47.885Z,98182.00
2023-11-01T07:00:18.800Z,98177.00
2023-11-01T07:02:45.793Z,98174.00
2023-11-01T07:05:37.970Z,98178.00
2023-11-01T07:11:51.734Z,98177.00
2023-11-01T07:15:34.227Z,98178.00
2023-11-01T07:18:23.054Z,98190.00
2023-11-01T07:21:24.340Z,98181.00
2023-11-01T07:27:07.621Z,98194.00
2023-11-01T07:29:34.421Z,98187.00
2023-11-01T07:32:01.285Z,98187.00
2023-11-01T07:34:28.017Z,98183.00
2023-11-01T07:36:54.873Z,98180.00
2023-11-01T07:39:21.636Z,98185.00
2023-11-01T07:41:48.490Z,98178.00
2023-11-01T07:44:15.276Z,98176.00
2023-11-01T07:46:48.911Z,98171.00
2023-11-01T07:49:15.756Z,98173.00
2023-11-01T07:51:43.215Z,98178.00
2023-11-01T07:54:11.975Z,98174.00
2023-11-01T07:56:38.808Z,98164.00
2023-11-01T07:59:05.695Z,98167.00
2023-11-01T08:01:33.162Z,98171.00
2023-11-01T08:04:00.076Z,98167.00
2023-11-01T08:06:26.956Z,98173.00
2023-11-01T08:08:54.287Z,98177.00
2023-11-01T08:11:21.104Z,98178.00
2023-11-01T08:13:48.196Z,98179.00
2023-11-01T08:16:15.396Z,98169.00
2023-11-01T08:18:42.171Z,98177.00
2023-11-01T08:21:08.943Z,98178.00
2023-11-01T08:23:36.515Z,98184.00
2023-11-01T08:26:03.565Z,98177.00
2023-11-01T08:28:30.342Z,98171.00
2023-11-01T08:30:57.101Z,98172.00
2023-11-01T08:33:23.979Z,98168.00
2023-11-01T08:35:52.392Z,98161.00
2023-11-01T08:38:22.975Z,98178.00
2023-11-01T08:40:49.823Z,98174.00
2023-11-01T08:43:18.430Z,98169.00
2023-11-01T08:45:45.263Z,98176.00
2023-11-01T08:48:14.041Z,98180.00
2023-11-01T08:50:41.020Z,98177.00
2023-11-01T08:53:07.820Z,98168.00
2023-11-01T08:55:36.183Z,98169.00
2023-11-01T08:58:05.985Z,98164.00
2023-11-01T09:00:42.699Z,98157.00
2023-11-01T09:03:15.120Z,98161.00
2023-11-01T09:05:42.342Z,98156.00
2023-11-01T09:08:09.148Z,98156.00
2023-11-01T09:10:35.847Z,98156.00
2023-11-01T09:13:02.800Z,98155.00
2023-11-01T09:15:29.690Z,98150.00
2023-11-01T09:18:03.377Z,98156.00
2023-11-01T09:20:30.368Z,98156.00
2023-11-01T09:22:59.959Z,98147.00
2023-11-01T09:25:28.304Z,98156.00
2023-11-01T09:27:55.071Z,98153.00
2023-11-01T09:30:22.066Z,98154.00
2023-11-01T09:32:48.963Z,98162.00
2023-11-01T09:35:15.840Z,98160.00
2023-11-01T09:37:42.613Z,98166.00
2023-11-01T09:40:13.529Z,98158.00
2023-11-01T09:42:42.230Z,98153.00
2023-11-01T09:45:13.316Z,98135.00
2023-11-01T09:47:41.489Z,98134.00
2023-11-01T09:50:09.953Z,98139.00
2023-11-01T09:52:37.465Z,98135.00
2023-11-01T09:55:05.784Z,98131.00
2023-11-01T09:57:35.748Z,98130.00
2023-11-01T10:00:08.619Z,98129.00
2023-11-01T10:02:36.132Z,98126.00
2023-11-01T10:05:03.822Z,98122.00
2023-11-01T10:07:33.966Z,98112.00
2023-11-01T10:10:05.040Z,98115.00
2023-11-01T10:12:32.480Z,98102.00
2023-11-01T10:14:59.357Z,98109.00
2023-11-01T10:17:29.369Z,98109.00
2023-11-01T10:19:56.414Z,98101.00
2023-11-01T10:22:24.409Z,98101.00
2023-11-01T10:24:51.879Z,98099.00
2023-11-01T10:27:18.664Z,98093.00
2023-11-01T10:29:48.205Z,98092.00
2023-11-01T10:32:17.824Z,98092.00
2023-11-01T10:34:44.721Z,98090.00
2023-11-01T10:37:11.535Z,98086.00
2023-11-01T10:39:41.116Z,98085.00
2023-11-01T10:42:10.866Z,98084.00
2023-11-01T10:44:39.504Z,98082.00
2023-11-01T10:47:08.502Z,98088.00
2023-11-01T10:49:36.532Z,98081.00
2023-11-01T10:52:05.492Z,98079.00
2023-11-01T10:54:34.169Z,98075.00
2023-11-01T10:57:02.257Z,98067.00
2023-11-01T10:59:45.027Z,98069.00
2023-11-01T11:02:27.005Z,98071.00
2023-11-01T11:05:12.967Z,98046.00
2023-11-01T11:07:56.937Z,98046.00
2023-11-01T11:10:44.119Z,98032.00
2023-11-01T11:13:18.643Z,98038.00
2023-11-01T11:15:49.004Z,98037.00
2023-11-01T11:18:19.680Z,98033.00
2023-11-01T11:20:46.850Z,98023.00
2023-11-01T11:23:17.820Z,98008.00
2023-11-01T11:25:52.907Z,98008.00
2023-11-01T11:28:20.168Z,97994.00
2023-11-01T11:31:15.433Z,97986.00
2023-11-01T11:33:50.923Z,97991.00
2023-11-01T11:36:30.538Z,97975.00
2023-11-01T11:39:07.113Z,97980.00
2023-11-01T11:41:40.348Z,97972.00
2023-11-01T11:44:12.838Z,97954.00
2023-11-01T11:46:56.111Z,97954.00
2023-11-01T11:49:24.866Z,97945.00
2023-11-01T11:51:55.625Z,97949.00
2023-11-01T11:54:28.169Z,97935.00
2023-11-01T11:56:59.106Z,97926.00
2023-11-01T11:59:27.855Z,97934.00
2023-11-01T12:02:08.070Z,97934.00
2023-11-01T12:04:38.529Z,97928.00
2023-11-01T12:07:09.485Z,97923.00
2023-11-01T12:09:36.692Z,97933.00
2023-11-01T12:12:17.264Z,97927.00
2023-11-01T12:14:49.506Z,97937.00
2023-11-01T12:17:16.353Z,97920.00
2023-11-01T12:19:47.500Z,97913.00
2023-11-01T12:22:15.779Z,97907.00
2023-11-01T12:24:45.659Z,97907.00
2023-11-01T12:27:19.736Z,97916.00
2023-11-01T12:29:55.314Z,97893.00
2023-11-01T12:32:25.050Z,97896.00
2023-11-01T12:34:51.909Z,97898.00
2023-11-01T12:37:25.383Z,97900.00
2023-11-01T12:40:13.827Z,97900.00
2023-11-01T12:42:52.078Z,97902.00
2023-11-01T12:45:24.737Z,97891.00
2023-11-01T12:47:54.745Z,97887.00
2023-11-01T12:50:28.739Z,97878.00
2023-11-01T12:52:56.084Z,97882.00
2023-11-01T12:55:45.311Z,97878.00
2023-11-01T12:58:12.305Z,97875.00
2023-11-01T13:00:39.071Z,97867.00
2023-11-01T13:03:12.099Z,97868.00
2023-11-01T13:05:40.619Z,97864.00
2023-11-01T13:08:07.599Z,97870.00
2023-11-01T13:10:37.435Z,97864.00
2023-11-01T13:13:07.152Z,97864.00
2023-11-01T13:15:34.638Z,97870.00
2023-11-01T13:18:01.517Z,97870.00
2023-11-01T13:20:28.872Z,97860.00
2023-11-01T13:23:10.884Z,97856.00
2023-11-01T13:25:40.167Z,97859.00
2023-11-01T13:28:06.999Z,97868.00
2023-11-01T13:30:37.626Z,97872.00
2023-11-01T13:33:14.378Z,97855.00
2023-11-01T13:35:41.238Z,97864.00
2023-11-01T13:38:08.155Z,97862.00
2023-11-01T13:40:35.820Z,97853.00
2023-11-01T13:43:03.002Z,97857.00
2023-11-01T13:45:29.862Z,97855.00
2023-11-01T13:47:57.407Z,97852.00
2023-11-01T13:50:25.785Z,97857.00
2023-11-01T13:52:52.567Z,97857.00
2023-11-01T13:55:19.416Z,97858.00
2023-11-01T13:57:46.244Z,97849.00
2023-11-01T14:00:16.426Z,97851.00
2023-11-01T14:02:44.001Z,97849.00
2023-11-01T14:05:12.706Z,97847.00
2023-11-01T14:07:39.527Z,97846.00
2023-11-01T14:10:07.071Z,97853.00
2023-11-01T14:12:34.806Z,97840.00
2023-11-01T14:15:01.622Z,97842.00
2023-11-01T14:17:32.256Z,97849.00
2023-11-01T14:19:59.056Z,97844.00
2023-11-01T14:22:25.852Z,97849.00
2023-11-01T14:24:52.704Z,97844.00
2023-11-01T14:27:19.564Z,97831.00
2023-11-01T14:29:47.452Z,97842.00
2023-11-01T14:32:14.151Z,97836.00
2023-11-01T14:34:40.939Z,97840.00
2023-11-01T14:37:07.849Z,97832.00
2023-11-01T14:39:34.651Z,97829.00
2023-11-01T14:42:02.497Z,97825.00
2023-11-01T14:44:29.819Z,97829.00
2023-11-01T14:46:56.541Z,97818.00
2023-11-01T14:49:23.448Z,97818.00
2023-11-01T14:51:50.247Z,97818.00
2023-11-01T14:54:17.222Z,97824.00
2023-11-01T14:56:46.132Z,97815.00
2023-11-01T14:59:12.992Z,97813.00
2023-11-01T15:01:40.765Z,97819.00
2023-11-01T15:04:07.548Z,97812.00
2023-11-01T15:06:35.650Z,97803.00
2023-11-01T15:09:02.728Z,97810.00
2023-11-01T15:11:29.527Z,97788.00
2023-11-01T15:13:56.270Z,97792.00
2023-11-01T15:16:23.153Z,97789.00
2023-11-01T15:18:49.890Z,97787.00
2023-11-01T15:21:16.826Z,97797.00
2023-11-01T15:23:43.915Z,97790.00
2023-11-01T15:26:11.565Z,97794.00
2023-11-01T15:28:38.558Z,97784.00
2023-11-01T15:31:05.558Z,97781.00
2023-11-01T15:33:32.785Z,97775.00
2023-11-01T15:35:59.777Z,97769.00
2023-11-01T15:38:26.611Z,97777.00
2023-11-01T15:40:53.446Z,97767.00
2023-11-01T15:43:20.276Z,97779.00
2023-11-01T15:45:47.127Z,97762.00
2023-11-01T15:48:13.924Z,97766.00
2023-11-01T15:50:44.103Z,97748.00
2023-11-01T15:53:11.097Z,97749.00
2023-11-01T15:55:38.112Z,97747.00
2023-11-01T15:58:04.918Z,97745.00
2023-11-01T16:00:32.064Z,97751.00
2023-11-01T16:03:00.563Z,97754.00
2023-11-01T16:05:27.848Z,97753.00
2023-11-01T16:07:54.713Z,97770.00
2023-11-01T16:10:21.801Z,97760.00
2023-11-01T16:12:48.617Z,97762.00
2023-11-01T16:15:15.428Z,97757.00
2023-11-01T16:17:42.274Z,97768.00
2023-11-01T16:20:09.623Z,97767.00
2023-11-01T16:22:36.329Z,97777.00
2023-11-01T16:25:03.266Z,97794.00
2023-11-01T16:27:30.052Z,97786.00
2023-11-01T16:29:56.869Z,97791.00
2023-11-01T16:32:23.616Z,97798.00
2023-11-01T16:34:50.990Z,97800.00
2023-11-01T16:37:17.809Z,97807.00
2023-11-01T16:39:44.638Z,97823.00
2023-11-01T16:42:11.447Z,97825.00
2023-11-01T16:44:38.236Z,97820.00
2023-11-01T16:47:05.424Z,97821.00
2023-11-01T16:49:32.129Z,97825.00
2023-11-01T16:51:58.960Z,97832.00
2023-11-01T16:54:25.712Z,97835.00
2023-11-01T16:56:52.927Z,97844.00
2023-11-01T16:59:19.758Z,97869.00
2023-11-01T17:01:46.565Z,97865.00
2023-11-01T17:04:16.361Z,97865.00
2023-11-01T17:06:43.271Z,97880.00
2023-11-01T17:09:10.138Z,97883.00
2023-11-01T17:11:36.965Z,97894.00
2023-11-01T17:14:03.794Z,97882.00
2023-11-01T17:16:30.558Z,97892.00
2023-11-01T17:18:57.360Z,97888.00
2023-11-01T17:21:24.282Z,97879.00
2023-11-01T17:23:52.109Z,97858.00
2023-11-01T17:26:36.350Z,97868.00
2023-11-01T17:29:03.572Z,97873.00
2023-11-01T17:31:50.999Z,97883.00
2023-11-01T17:34:39.631Z,97889.00
2023-11-01T17:37:07.141Z,97890.00
2023-11-01T17:39:41.855Z,97890.00
2023-11-01T17:42:12.210Z,97886.00
2023-11-01T17:44:41.580Z,97884.00
2023-11-01T17:47:12.902Z,97886.00
2023-11-01T17:49:48.097Z,97881.00
2023-11-01T17:52:29.577Z,97880.00
2023-11-01T17:55:06.305Z,97881.00
2023-11-01T17:57:35.457Z,97864.00
2023-11-01T18:00:09.458Z,97866.00
2023-11-01T18:03:13.440Z,97873.00
2023-11-01T18:05:41.728Z,97867.00
2023-11-01T18:08:14.609Z,97861.00
2023-11-01T18:10:54.923Z,97862.00
2023-11-01T18:13:34.350Z,97866.00
2023-11-01T18:16:08.681Z,97862.00
2023-11-01T18:18:57.791Z,97861.00
2023-11-01T18:21:34.338Z,97867.00
2023-11-01T18:24:12.871Z,97868.00
2023-11-01T18:26:43.511Z,97875.00
2023-11-01T18:29:23.467Z,97877.00
2023-11-01T18:31:51.229Z,97883.00
2023-11-01T18:34:25.069Z,97896.00
2023-11-01T18:36:54.190Z,97894.00
2023-11-01T18:39:30.319Z,97883.00
2023-11-01T18:42:00.037Z,97883.00
2023-11-01T18:44:48.540Z,97880.00
2023-11-01T18:47:23.386Z,97895.00
2023-11-01T18:50:13.372Z,97870.00
2023-11-01T18:52:51.653Z,97876.00
2023-11-01T18:55:32.010Z,97879.00
2023-11-01T18:58:17.045Z,97860.00
2023-11-01T19:00:54.635Z,97865.00
2023-11-01T19:03:36.877Z,97845.00
2023-11-01T19:06:17.306Z,97851.00
2023-11-01T19:08:50.276Z,97849.00
2023-11-01T19:11:31.965Z,97852.00
2023-11-01T19:14:03.268Z,97855.00
2023-11-01T19:16:33.310Z,97866.00
2023-11-01T19:19:01.647Z,97845.00
2023-11-01T19:21:34.801Z,97844.00
2023-11-01T19:24:02.566Z,97842.00
2023-11-01T19:26:40.653Z,97850.00
2023-11-01T19:29:11.586Z,97837.00
2023-11-01T19:31:44.630Z,97842.00
2023-11-01T19:34:29.698Z,97844.00
2023-11-01T19:37:01.871Z,97843.00
2023-11-01T19:39:34.225Z,97833.00
2023-11-01T19:42:01.448Z,97839.00
2023-11-01T19:44:28.235Z,97849.00
2023-11-01T19:46:55.324Z,97846.00
2023-11-01T19:49:25.297Z,97843.00
2023-11-01T19:51:52.238Z,97837.00
2023-11-01T19:54:23.659Z,97830.00
2023-11-01T19:56:50.588Z,97816.00
2023-11-01T19:59:26.076Z,97813.00
2023-11-01T20:02:03.461Z,97813.00
2023-11-01T20:04:46.460Z,97811.00
2023-11-01T20:07:22.077Z,97800.00
2023-11-01T20:10:05.358Z,97789.00
2023-11-01T20:12:43.728Z,97783.00
2023-11-01T20:15:13.325Z,97791.00
2023-11-01T20:17:54.650Z,97785.00
2023-11-01T20:20:32.497Z,97788.00
2023-11-01T20:23:06.187Z,97788.00
2023-11-01T20:25:56.757Z,97796.00
2023-11-01T20:28:29.766Z,97776.00
2023-11-01T20:31:08.952Z,97785.00
2023-11-01T20:33:43.532Z,97769.00
2023-11-01T20:36:15.688Z,97768.00
2023-11-01T20:38:42.858Z,97759.00
2023-11-01T20:41:30.674Z,97762.00
2023-11-01T20:44:25.689Z,97780.00
2023-11-01T20:47:09.775Z,97769.00
2023-11-01T20:49:59.319Z,97760.00
2023-11-01T20:56:27.957Z,97768.00
2023-11-01T20:59:16.272Z,97753.00
2023-11-01T21:01:43.124Z,97746.00
2023-11-01T21:04:21.123Z,97760.00
2023-11-01T21:06:57.293Z,97748.00
2023-11-01T21:10:03.976Z,97743.00
2023-11-01T21:13:29.717Z,97735.00
2023-11-01T21:16:00.553Z,97724.00
2023-11-01T21:18:35.827Z,97722.00
2023-11-01T21:21:15.415Z,97716.00
2023-11-01T21:24:36.204Z,97713.00
2023-11-01T21:27:28.818Z,97707.00
2023-11-01T21:30:18.030Z,97702.00
2023-11-01T21:33:12.919Z,97689.00
2023-11-01T21:35:55.699Z,97674.00
2023-11-01T21:39:08.089Z,97662.00
2023-11-01T21:41:45.327Z,97659.00
2023-11-01T21:45:00.515Z,97643.00
2023-11-01T21:48:49.477Z,97637.00
2023-11-01T21:51:48.431Z,97635.00
2023-11-01T21:54:43.450Z,97627.00
2023-11-01T21:58:20.218Z,97621.00
2023-11-01T22:01:31.661Z,97613.00
2023-11-01T22:05:18.966Z,97607.00
2023-11-01T22:09:07.470Z,97597.00
2023-11-01T22:15:28.206Z,97565.00
2023-11-01T22:18:21.410Z,97555.00
2023-11-01T22:21:29.652Z,97559.00
2023-11-01T22:24:23.169Z,97554.00
2023-11-01T22:27:04.042Z,97542.00
2023-11-01T22:33:53.761Z,97538.00
2023-11-01T22:36:32.491Z,97536.00
2023-11-01T22:39:14.740Z,97540.00
2023-11-01T22:42:38.897Z,97535.00
2023-11-01T22:46:21.648Z,97530.00
2023-11-01T22:49:36.227Z,97526.00
2023-11-01T22:52:23.868Z,97521.00
2023-11-01T22:58:35.347Z,97510.00
2023-11-01T23:01:22.137Z,97480.00
2023-11-01T23:04:19.044Z,97485.00
2023-11-01T23:07:17.825Z,97479.00
2023-11-01T23:12:52.349Z,97448.00
2023-11-01T23:18:43.279Z,97438.00
2023-11-01T23:21:26.901Z,97432.00
2023-11-01T23:24:22.774Z,97419.00
2023-11-01T23:27:05.242Z,97425.00
2023-11-01T23:29:57.792Z,97406.00
2023-11-01T23:32:38.133Z,97401.00
2023-11-01T23:35:25.418Z,97387.00
2023-11-01T23:41:36.192Z,97380.00
2023-11-01T23:44:31.832Z,97374.00
2023-11-01T23:47:47.207Z,97357.00
2023-11-01T23:50:39.886Z,97344.00
2023-11-01T23:53:37.424Z,97341.00
2023-11-01T23:56:30.046Z,97320.00
2023-11-01T23:59:29.166Z,97305.00
